Monessen, Pennsylvania
Current Conditions -  °F | °C
As of 10:01 PM on Tuesday 21 Oct 2014 (Local Time) from KAGC Reporting Station
Overcast Overcast  
Wind Chill: 44°   Ceiling: 900
Heat Index: 48°   Visibility: 7mi
Dew Point: 42°   Wind: 9mph
Humidity: 80%   Direction: 330°NNW
Pressure: 30"   Gusts: NA
Location:  40.16°N, 79.88°W
Report Text: KAGC 220201Z 33008KT 7SM OVC009 09/06 A3000 RMK AO2 T00890056
Loading
Personal Weather Stations






























Interactive Weather Map
Tropical Storm Tracking
New forecast layout! Learn more

10-Day Weather Forecast

Advertisements
Track Severe Weather on mobile